sensor_id;sensor_type;location;lat;lon;timestamp;pressure;altitude;pressure_sealevel;temperature;humidity
9415;BME280;4746;35.664;139.738;2024-01-16T00:00:38;100597.84;;;8.87;32.56
9415;BME280;4746;35.664;139.738;2024-01-16T00:03:05;100602.16;;;8.91;32.88
9415;BME280;4746;35.664;139.738;2024-01-16T00:05:33;100595.34;;;8.91;32.74
9415;BME280;4746;35.664;139.738;2024-01-16T00:08:00;100605.63;;;8.93;32.51
9415;BME280;4746;35.664;139.738;2024-01-16T00:10:28;100610.75;;;8.93;32.23
9415;BME280;4746;35.664;139.738;2024-01-16T00:12:57;100618.44;;;8.94;31.86
9415;BME280;4746;35.664;139.738;2024-01-16T00:15:24;100617.38;;;8.85;30.98
9415;BME280;4746;35.664;139.738;2024-01-16T00:17:52;100613.78;;;8.77;31.17
9415;BME280;4746;35.664;139.738;2024-01-16T00:20:20;100612.94;;;8.76;30.93
9415;BME280;4746;35.664;139.738;2024-01-16T00:22:50;100606.91;;;8.73;30.71
9415;BME280;4746;35.664;139.738;2024-01-16T00:25:18;100620.47;;;8.69;29.98
9415;BME280;4746;35.664;139.738;2024-01-16T00:27:49;100609.28;;;8.64;30.25
9415;BME280;4746;35.664;139.738;2024-01-16T00:30:17;100609.34;;;8.67;30.32
9415;BME280;4746;35.664;139.738;2024-01-16T00:32:45;100607.72;;;8.70;30.31
9415;BME280;4746;35.664;139.738;2024-01-16T00:35:13;100607.00;;;8.76;30.25
9415;BME280;4746;35.664;139.738;2024-01-16T00:37:45;100608.00;;;8.84;30.06
9415;BME280;4746;35.664;139.738;2024-01-16T00:40:13;100594.50;;;8.89;29.83
9415;BME280;4746;35.664;139.738;2024-01-16T00:42:44;100598.84;;;8.95;29.82
9415;BME280;4746;35.664;139.738;2024-01-16T00:45:13;100592.16;;;8.99;29.72
9415;BME280;4746;35.664;139.738;2024-01-16T00:47:40;100594.81;;;9.05;29.56
9415;BME280;4746;35.664;139.738;2024-01-16T00:50:08;100587.19;;;9.08;28.88
9415;BME280;4746;35.664;139.738;2024-01-16T00:52:36;100598.19;;;9.04;28.24
9415;BME280;4746;35.664;139.738;2024-01-16T00:55:04;100598.09;;;8.98;28.38
9415;BME280;4746;35.664;139.738;2024-01-16T00:57:32;100590.31;;;8.93;28.69
9415;BME280;4746;35.664;139.738;2024-01-16T00:59:59;100598.84;;;8.95;28.35
9415;BME280;4746;35.664;139.738;2024-01-16T01:02:27;100599.72;;;8.95;28.21
9415;BME280;4746;35.664;139.738;2024-01-16T01:04:54;100609.03;;;8.93;28.37
9415;BME280;4746;35.664;139.738;2024-01-16T01:07:22;100598.72;;;8.89;28.19
9415;BME280;4746;35.664;139.738;2024-01-16T01:09:49;100596.13;;;8.87;27.92
9415;BME280;4746;35.664;139.738;2024-01-16T01:12:17;100599.50;;;8.85;27.45
9415;BME280;4746;35.664;139.738;2024-01-16T01:14:44;100605.38;;;8.81;28.08
9415;BME280;4746;35.664;139.738;2024-01-16T01:17:12;100598.44;;;8.74;28.08
9415;BME280;4746;35.664;139.738;2024-01-16T01:19:39;100592.47;;;8.73;27.73
9415;BME280;4746;35.664;139.738;2024-01-16T01:22:07;100591.72;;;8.80;27.64
9415;BME280;4746;35.664;139.738;2024-01-16T01:24:34;100574.78;;;8.84;27.53
9415;BME280;4746;35.664;139.738;2024-01-16T01:27:02;100562.84;;;8.83;27.94
9415;BME280;4746;35.664;139.738;2024-01-16T01:29:29;100567.16;;;8.85;27.63
9415;BME280;4746;35.664;139.738;2024-01-16T01:31:57;100559.53;;;8.87;27.25
9415;BME280;4746;35.664;139.738;2024-01-16T01:34:25;100565.47;;;8.87;27.83
9415;BME280;4746;35.664;139.738;2024-01-16T01:36:53;100563.97;;;8.97;27.93
9415;BME280;4746;35.664;139.738;2024-01-16T01:39:24;100561.75;;;9.16;27.69
9415;BME280;4746;35.664;139.738;2024-01-16T01:41:55;100559.44;;;9.28;27.64
9415;BME280;4746;35.664;139.738;2024-01-16T01:44:28;100557.78;;;9.30;27.72
9415;BME280;4746;35.664;139.738;2024-01-16T01:46:58;100552.66;;;9.30;27.14
9415;BME280;4746;35.664;139.738;2024-01-16T01:49:28;100552.78;;;9.39;26.75
9415;BME280;4746;35.664;139.738;2024-01-16T01:51:56;100550.53;;;9.55;27.23
9415;BME280;4746;35.664;139.738;2024-01-16T01:54:27;100542.34;;;9.77;26.87
9415;BME280;4746;35.664;139.738;2024-01-16T01:56:55;100541.72;;;9.91;26.67
9415;BME280;4746;35.664;139.738;2024-01-16T01:59:38;100541.19;;;10.12;26.90
9415;BME280;4746;35.664;139.738;2024-01-16T02:02:06;100524.25;;;10.20;26.42
9415;BME280;4746;35.664;139.738;2024-01-16T02:04:36;100514.09;;;10.26;25.98
9415;BME280;4746;35.664;139.738;2024-01-16T02:07:05;100523.41;;;10.22;25.57
9415;BME280;4746;35.664;139.738;2024-01-16T02:09:35;100514.97;;;10.28;25.69
9415;BME280;4746;35.664;139.738;2024-01-16T02:12:06;100519.22;;;10.26;25.81
9415;BME280;4746;35.664;139.738;2024-01-16T02:14:34;100522.59;;;10.25;25.92
9415;BME280;4746;35.664;139.738;2024-01-16T02:17:01;100502.25;;;10.34;26.15
9415;BME280;4746;35.664;139.738;2024-01-16T02:19:29;100515.97;;;10.38;25.54
9415;BME280;4746;35.664;139.738;2024-01-16T02:22:04;100502.34;;;10.42;25.48
9415;BME280;4746;35.664;139.738;2024-01-16T02:24:37;100497.22;;;10.42;25.48
9415;BME280;4746;35.664;139.738;2024-01-16T02:27:06;100494.63;;;10.39;24.96
9415;BME280;4746;35.664;139.738;2024-01-16T02:29:34;100508.28;;;10.38;24.58
9415;BME280;4746;35.664;139.738;2024-01-16T02:32:07;100496.38;;;10.43;24.44
9415;BME280;4746;35.664;139.738;2024-01-16T02:34:35;100500.66;;;10.44;24.03
9415;BME280;4746;35.664;139.738;2024-01-16T02:37:03;100497.28;;;10.48;25.01
9415;BME280;4746;35.664;139.738;2024-01-16T02:39:31;100500.81;;;10.56;23.86
9415;BME280;4746;35.664;139.738;2024-01-16T02:41:59;100494.09;;;10.67;23.96
9415;BME280;4746;35.664;139.738;2024-01-16T02:44:28;100501.91;;;10.78;23.66
9415;BME280;4746;35.664;139.738;2024-01-16T02:46:56;100499.44;;;10.85;22.84
9415;BME280;4746;35.664;139.738;2024-01-16T02:49:24;100506.34;;;10.92;22.00
9415;BME280;4746;35.664;139.738;2024-01-16T02:51:53;100491.03;;;11.00;21.82
9415;BME280;4746;35.664;139.738;2024-01-16T02:54:21;100489.31;;;11.00;21.03
9415;BME280;4746;35.664;139.738;2024-01-16T02:56:49;100492.72;;;10.99;20.81
9415;BME280;4746;35.664;139.738;2024-01-16T02:59:17;100488.50;;;11.04;20.65
9415;BME280;4746;35.664;139.738;2024-01-16T03:01:45;100492.88;;;11.14;20.39
9415;BME280;4746;35.664;139.738;2024-01-16T03:04:13;100473.31;;;11.26;20.45
9415;BME280;4746;35.664;139.738;2024-01-16T03:06:41;100473.41;;;11.35;20.15
9415;BME280;4746;35.664;139.738;2024-01-16T03:09:08;100488.97;;;11.53;20.54
9415;BME280;4746;35.664;139.738;2024-01-16T03:11:36;100473.66;;;11.68;19.70
9415;BME280;4746;35.664;139.738;2024-01-16T03:14:05;100477.06;;;11.63;19.76
9415;BME280;4746;35.664;139.738;2024-01-16T03:16:33;100506.09;;;11.60;19.57
9415;BME280;4746;35.664;139.738;2024-01-16T03:19:00;100487.28;;;11.58;19.65
9415;BME280;4746;35.664;139.738;2024-01-16T03:21:28;100491.53;;;11.55;19.96
9415;BME280;4746;35.664;139.738;2024-01-16T03:23:55;100472.66;;;11.50;20.07
9415;BME280;4746;35.664;139.738;2024-01-16T03:26:24;100489.84;;;11.60;20.20
9415;BME280;4746;35.664;139.738;2024-01-16T03:28:54;100536.09;;;11.63;20.10
9415;BME280;4746;35.664;139.738;2024-01-16T03:31:21;100491.53;;;11.58;20.31
9415;BME280;4746;35.664;139.738;2024-01-16T03:33:49;100513.84;;;11.65;20.50
9415;BME280;4746;35.664;139.738;2024-01-16T03:36:16;100517.28;;;11.70;20.79
9415;BME280;4746;35.664;139.738;2024-01-16T03:38:45;100509.59;;;11.68;20.70
9415;BME280;4746;35.664;139.738;2024-01-16T03:41:12;100514.63;;;11.58;21.34
9415;BME280;4746;35.664;139.738;2024-01-16T03:43:41;100539.41;;;11.54;21.44
9415;BME280;4746;35.664;139.738;2024-01-16T03:46:11;100539.41;;;11.51;21.70
9415;BME280;4746;35.664;139.738;2024-01-16T03:48:38;100531.72;;;11.53;22.09
9415;BME280;4746;35.664;139.738;2024-01-16T03:51:06;100544.59;;;11.56;22.27
9415;BME280;4746;35.664;139.738;2024-01-16T03:53:33;100540.19;;;11.47;22.23
9415;BME280;4746;35.664;139.738;2024-01-16T03:56:01;100541.00;;;11.42;22.70
9415;BME280;4746;35.664;139.738;2024-01-16T03:58:29;100530.78;;;11.48;22.62
9415;BME280;4746;35.664;139.738;2024-01-16T04:00:56;100556.53;;;11.51;22.72
9415;BME280;4746;35.664;139.738;2024-01-16T04:03:24;100546.38;;;11.66;22.98
9415;BME280;4746;35.664;139.738;2024-01-16T04:05:51;100561.84;;;11.79;22.73
9415;BME280;4746;35.664;139.738;2024-01-16T04:08:19;100544.53;;;12.92;22.26
9415;BME280;4746;35.664;139.738;2024-01-16T04:10:46;100547.16;;;14.01;21.14
9415;BME280;4746;35.664;139.738;2024-01-16T04:13:14;100566.00;;;14.33;21.35
9415;BME280;4746;35.664;139.738;2024-01-16T04:15:41;100549.72;;;15.82;20.00
9415;BME280;4746;35.664;139.738;2024-01-16T04:18:11;100569.31;;;16.03;19.52
9415;BME280;4746;35.664;139.738;2024-01-16T04:20:38;100563.44;;;15.87;19.54
9415;BME280;4746;35.664;139.738;2024-01-16T04:23:06;100548.72;;;15.96;19.10
9415;BME280;4746;35.664;139.738;2024-01-16T04:25:33;100579.28;;;16.44;19.00
9415;BME280;4746;35.664;139.738;2024-01-16T04:28:01;100586.59;;;15.98;17.76
9415;BME280;4746;35.664;139.738;2024-01-16T04:30:40;100555.38;;;15.13;19.03
9415;BME280;4746;35.664;139.738;2024-01-16T04:33:08;100559.97;;;14.50;18.92
9415;BME280;4746;35.664;139.738;2024-01-16T04:35:36;100548.94;;;15.72;18.21
9415;BME280;4746;35.664;139.738;2024-01-16T04:38:03;100558.88;;;16.89;17.76
9415;BME280;4746;35.664;139.738;2024-01-16T04:40:31;100553.00;;;17.94;17.47
9415;BME280;4746;35.664;139.738;2024-01-16T04:42:59;100556.41;;;18.86;16.73
9415;BME280;4746;35.664;139.738;2024-01-16T04:45:26;100543.72;;;19.50;15.66
9415;BME280;4746;35.664;139.738;2024-01-16T04:47:54;100555.13;;;19.44;15.59
9415;BME280;4746;35.664;139.738;2024-01-16T04:50:21;100558.16;;;19.26;15.68
9415;BME280;4746;35.664;139.738;2024-01-16T04:52:49;100503.03;;;19.83;15.66
9415;BME280;4746;35.664;139.738;2024-01-16T04:55:17;100549.50;;;19.97;15.47
9415;BME280;4746;35.664;139.738;2024-01-16T04:57:44;100558.56;;;20.16;15.64
9415;BME280;4746;35.664;139.738;2024-01-16T05:00:12;100585.94;;;20.60;15.69
9415;BME280;4746;35.664;139.738;2024-01-16T05:02:40;100538.59;;;20.78;14.96
9415;BME280;4746;35.664;139.738;2024-01-16T05:05:07;100584.78;;;21.02;15.57
9415;BME280;4746;35.664;139.738;2024-01-16T05:07:35;100560.50;;;21.00;15.03
9415;BME280;4746;35.664;139.738;2024-01-16T05:10:03;100607.06;;;21.12;14.94
9415;BME280;4746;35.664;139.738;2024-01-16T05:12:31;100600.03;;;21.43;15.13
9415;BME280;4746;35.664;139.738;2024-01-16T05:14:59;100562.63;;;21.44;15.17
9415;BME280;4746;35.664;139.738;2024-01-16T05:17:26;100588.72;;;21.15;14.64
9415;BME280;4746;35.664;139.738;2024-01-16T05:19:54;100611.97;;;20.92;15.01
9415;BME280;4746;35.664;139.738;2024-01-16T05:22:23;100618.13;;;20.58;15.17
9415;BME280;4746;35.664;139.738;2024-01-16T05:24:52;100612.00;;;20.60;15.19
9415;BME280;4746;35.664;139.738;2024-01-16T05:27:20;100622.31;;;21.24;15.29
9415;BME280;4746;35.664;139.738;2024-01-16T05:29:50;100624.56;;;21.07;15.14
9415;BME280;4746;35.664;139.738;2024-01-16T05:32:17;100622.56;;;20.86;15.27
9415;BME280;4746;35.664;139.738;2024-01-16T05:34:45;100559.94;;;21.18;15.21
9415;BME280;4746;35.664;139.738;2024-01-16T05:37:13;100633.13;;;21.12;14.87
9415;BME280;4746;35.664;139.738;2024-01-16T05:39:40;100667.25;;;20.71;14.48
9415;BME280;4746;35.664;139.738;2024-01-16T05:42:08;100660.03;;;20.16;14.70
9415;BME280;4746;35.664;139.738;2024-01-16T05:44:35;100643.22;;;19.92;14.29
9415;BME280;4746;35.664;139.738;2024-01-16T05:47:03;100656.47;;;19.46;15.25
9415;BME280;4746;35.664;139.738;2024-01-16T05:49:31;100640.53;;;19.59;15.82
9415;BME280;4746;35.664;139.738;2024-01-16T05:51:59;100683.31;;;19.84;15.59
9415;BME280;4746;35.664;139.738;2024-01-16T05:54:27;100675.44;;;19.87;15.23
9415;BME280;4746;35.664;139.738;2024-01-16T05:56:55;100681.31;;;19.96;15.09
9415;BME280;4746;35.664;139.738;2024-01-16T05:59:23;100722.25;;;19.88;15.11
9415;BME280;4746;35.664;139.738;2024-01-16T06:01:50;100671.09;;;19.51;15.02
9415;BME280;4746;35.664;139.738;2024-01-16T06:04:18;100682.41;;;19.49;15.10
9415;BME280;4746;35.664;139.738;2024-01-16T06:06:45;100679.94;;;19.43;15.43
9415;BME280;4746;35.664;139.738;2024-01-16T06:09:16;100649.22;;;19.58;15.38
9415;BME280;4746;35.664;139.738;2024-01-16T06:11:43;100698.00;;;19.47;15.32
9415;BME280;4746;35.664;139.738;2024-01-16T06:14:16;100696.53;;;19.75;15.40
9415;BME280;4746;35.664;139.738;2024-01-16T06:16:48;100683.13;;;19.93;15.56
9415;BME280;4746;35.664;139.738;2024-01-16T06:19:16;100684.53;;;19.69;15.40
9415;BME280;4746;35.664;139.738;2024-01-16T06:21:43;100704.53;;;19.66;15.55
9415;BME280;4746;35.664;139.738;2024-01-16T06:24:14;100730.47;;;19.69;15.23
9415;BME280;4746;35.664;139.738;2024-01-16T06:26:43;100728.53;;;19.38;15.22
9415;BME280;4746;35.664;139.738;2024-01-16T06:29:11;100733.44;;;19.07;15.84
9415;BME280;4746;35.664;139.738;2024-01-16T06:31:40;100730.13;;;19.45;15.82
9415;BME280;4746;35.664;139.738;2024-01-16T06:34:07;100721.91;;;19.64;15.83
9415;BME280;4746;35.664;139.738;2024-01-16T06:36:35;100783.41;;;20.06;15.63
9415;BME280;4746;35.664;139.738;2024-01-16T06:39:04;100725.75;;;20.23;15.84
9415;BME280;4746;35.664;139.738;2024-01-16T06:41:31;100760.47;;;20.23;15.54
9415;BME280;4746;35.664;139.738;2024-01-16T06:43:59;100721.75;;;20.09;15.45
9415;BME280;4746;35.664;139.738;2024-01-16T06:46:26;100753.38;;;19.91;15.71
9415;BME280;4746;35.664;139.738;2024-01-16T06:48:54;100764.66;;;19.92;15.66
9415;BME280;4746;35.664;139.738;2024-01-16T06:51:22;100754.81;;;20.06;15.68
9415;BME280;4746;35.664;139.738;2024-01-16T06:53:50;100766.75;;;20.14;15.75
9415;BME280;4746;35.664;139.738;2024-01-16T06:56:17;100789.41;;;20.47;15.79
9415;BME280;4746;35.664;139.738;2024-01-16T06:58:45;100759.09;;;20.43;15.79
9415;BME280;4746;35.664;139.738;2024-01-16T07:01:12;100772.53;;;19.87;15.90
9415;BME280;4746;35.664;139.738;2024-01-16T07:03:41;100785.41;;;19.52;15.97
9415;BME280;4746;35.664;139.738;2024-01-16T07:06:08;100798.03;;;19.27;16.28
9415;BME280;4746;35.664;139.738;2024-01-16T07:08:35;100803.56;;;19.09;16.20
9415;BME280;4746;35.664;139.738;2024-01-16T07:11:03;100783.91;;;18.94;16.20
9415;BME280;4746;35.664;139.738;2024-01-16T07:13:35;100759.53;;;18.53;16.47
9415;BME280;4746;35.664;139.738;2024-01-16T07:16:02;100788.09;;;17.92;17.00
9415;BME280;4746;35.664;139.738;2024-01-16T07:18:31;100767.09;;;17.45;17.02
9415;BME280;4746;35.664;139.738;2024-01-16T07:21:00;100803.66;;;17.18;17.69
9415;BME280;4746;35.664;139.738;2024-01-16T07:23:28;100819.69;;;16.63;18.11
9415;BME280;4746;35.664;139.738;2024-01-16T07:25:56;100813.09;;;16.14;18.44
9415;BME280;4746;35.664;139.738;2024-01-16T07:28:23;100828.97;;;15.22;18.82
9415;BME280;4746;35.664;139.738;2024-01-16T07:30:54;100792.84;;;14.12;19.58
9415;BME280;4746;35.664;139.738;2024-01-16T07:33:21;100765.03;;;13.23;20.32
9415;BME280;4746;35.664;139.738;2024-01-16T07:35:49;100811.72;;;12.64;21.39
9415;BME280;4746;35.664;139.738;2024-01-16T07:38:16;100824.19;;;12.22;21.66
9415;BME280;4746;35.664;139.738;2024-01-16T07:40:44;100825.50;;;11.87;22.85
9415;BME280;4746;35.664;139.738;2024-01-16T07:43:12;100809.81;;;11.64;22.38
9415;BME280;4746;35.664;139.738;2024-01-16T07:45:39;100801.78;;;11.40;22.61
9415;BME280;4746;35.664;139.738;2024-01-16T07:48:07;100835.66;;;11.15;22.73
9415;BME280;4746;35.664;139.738;2024-01-16T07:50:35;100854.91;;;10.89;23.15
9415;BME280;4746;35.664;139.738;2024-01-16T07:53:02;100873.34;;;10.67;23.38
9415;BME280;4746;35.664;139.738;2024-01-16T07:55:30;100793.59;;;10.48;24.03
9415;BME280;4746;35.664;139.738;2024-01-16T07:57:57;100868.34;;;10.28;23.91
9415;BME280;4746;35.664;139.738;2024-01-16T08:00:25;100839.03;;;10.12;24.20
9415;BME280;4746;35.664;139.738;2024-01-16T08:02:54;100882.28;;;9.99;24.76
9415;BME280;4746;35.664;139.738;2024-01-16T08:05:21;100872.53;;;9.83;24.57
9415;BME280;4746;35.664;139.738;2024-01-16T08:07:52;100857.84;;;9.73;25.17
9415;BME280;4746;35.664;139.738;2024-01-16T08:10:20;100887.50;;;9.65;25.40
9415;BME280;4746;35.664;139.738;2024-01-16T08:12:47;100887.28;;;9.55;25.94
9415;BME280;4746;35.664;139.738;2024-01-16T08:15:15;100887.88;;;9.43;25.87
9415;BME280;4746;35.664;139.738;2024-01-16T08:17:42;100906.41;;;9.33;25.92
9415;BME280;4746;35.664;139.738;2024-01-16T08:20:10;100898.56;;;9.26;26.47
9415;BME280;4746;35.664;139.738;2024-01-16T08:22:38;100906.88;;;9.17;26.70
9415;BME280;4746;35.664;139.738;2024-01-16T08:25:06;100904.19;;;9.11;26.98
9415;BME280;4746;35.664;139.738;2024-01-16T08:27:35;100886.16;;;9.05;26.96
9415;BME280;4746;35.664;139.738;2024-01-16T08:30:06;100916.75;;;9.02;27.06
9415;BME280;4746;35.664;139.738;2024-01-16T08:32:34;100927.59;;;8.94;27.50
9415;BME280;4746;35.664;139.738;2024-01-16T08:35:01;100949.50;;;8.85;27.39
9415;BME280;4746;35.664;139.738;2024-01-16T08:37:29;100933.97;;;8.76;27.74
9415;BME280;4746;35.664;139.738;2024-01-16T08:39:56;100935.50;;;8.71;27.57
9415;BME280;4746;35.664;139.738;2024-01-16T08:42:24;100923.59;;;8.70;28.07
9415;BME280;4746;35.664;139.738;2024-01-16T08:44:51;100947.38;;;8.69;28.41
9415;BME280;4746;35.664;139.738;2024-01-16T08:47:19;100938.81;;;8.67;28.04
9415;BME280;4746;35.664;139.738;2024-01-16T08:49:46;100962.63;;;8.66;28.16
9415;BME280;4746;35.664;139.738;2024-01-16T08:52:15;100943.84;;;8.64;28.45
9415;BME280;4746;35.664;139.738;2024-01-16T08:54:42;100948.97;;;8.64;28.36
9415;BME280;4746;35.664;139.738;2024-01-16T08:57:10;100946.34;;;8.62;28.26
9415;BME280;4746;35.664;139.738;2024-01-16T08:59:37;100956.53;;;8.61;28.31
9415;BME280;4746;35.664;139.738;2024-01-16T09:02:06;100954.06;;;8.64;28.41
9415;BME280;4746;35.664;139.738;2024-01-16T09:04:33;100951.53;;;8.64;28.38
9415;BME280;4746;35.664;139.738;2024-01-16T09:07:01;100958.31;;;8.65;28.90
9415;BME280;4746;35.664;139.738;2024-01-16T09:09:31;100948.13;;;8.65;28.71
9415;BME280;4746;35.664;139.738;2024-01-16T09:11:58;100967.66;;;8.63;29.13
9415;BME280;4746;35.664;139.738;2024-01-16T09:14:26;100965.31;;;8.70;30.36
9415;BME280;4746;35.664;139.738;2024-01-16T09:16:54;100969.00;;;8.81;30.76
9415;BME280;4746;35.664;139.738;2024-01-16T09:19:21;100994.00;;;8.93;30.00
9415;BME280;4746;35.664;139.738;2024-01-16T09:21:49;100971.09;;;8.97;29.92
9415;BME280;4746;35.664;139.738;2024-01-16T09:24:16;100956.81;;;9.03;29.56
9415;BME280;4746;35.664;139.738;2024-01-16T09:26:46;100968.81;;;9.07;29.21
9415;BME280;4746;35.664;139.738;2024-01-16T09:29:14;100973.97;;;9.09;29.52
9415;BME280;4746;35.664;139.738;2024-01-16T09:31:42;100909.38;;;9.14;29.99
9415;BME280;4746;35.664;139.738;2024-01-16T09:34:10;100945.31;;;9.22;29.73
9415;BME280;4746;35.664;139.738;2024-01-16T09:36:40;100967.63;;;9.27;29.17
9415;BME280;4746;35.664;139.738;2024-01-16T09:39:08;100938.69;;;9.28;29.75
9415;BME280;4746;35.664;139.738;2024-01-16T09:41:42;100972.06;;;9.34;29.02
9415;BME280;4746;35.664;139.738;2024-01-16T09:44:12;100978.00;;;9.33;29.08
9415;BME280;4746;35.664;139.738;2024-01-16T09:46:43;100977.19;;;9.34;29.03
9415;BME280;4746;35.664;139.738;2024-01-16T09:49:16;100978.84;;;9.34;28.55
9415;BME280;4746;35.664;139.738;2024-01-16T09:51:46;100994.19;;;9.34;28.43
9415;BME280;4746;35.664;139.738;2024-01-16T09:54:14;100990.81;;;9.35;28.89
9415;BME280;4746;35.664;139.738;2024-01-16T09:56:45;100998.66;;;9.42;28.40
9415;BME280;4746;35.664;139.738;2024-01-16T09:59:18;100979.88;;;9.40;28.43
9415;BME280;4746;35.664;139.738;2024-01-16T10:01:46;101009.66;;;9.38;28.76
9415;BME280;4746;35.664;139.738;2024-01-16T10:04:16;100986.69;;;9.41;29.08
9415;BME280;4746;35.664;139.738;2024-01-16T10:06:46;100988.53;;;9.45;28.88
9415;BME280;4746;35.664;139.738;2024-01-16T10:09:15;101001.38;;;9.48;28.05
9415;BME280;4746;35.664;139.738;2024-01-16T10:11:45;100992.22;;;9.58;29.27
9415;BME280;4746;35.664;139.738;2024-01-16T10:14:14;100987.50;;;9.74;29.20
9415;BME280;4746;35.664;139.738;2024-01-16T10:17:00;100993.91;;;9.94;28.88
9415;BME280;4746;35.664;139.738;2024-01-16T10:19:52;100958.97;;;9.96;28.48
9415;BME280;4746;35.664;139.738;2024-01-16T10:22:25;100993.03;;;9.92;29.62
9415;BME280;4746;35.664;139.738;2024-01-16T10:25:08;100993.03;;;9.92;28.96
9415;BME280;4746;35.664;139.738;2024-01-16T10:27:39;101035.72;;;9.93;29.19
9415;BME280;4746;35.664;139.738;2024-01-16T10:30:07;101011.94;;;9.97;28.47
9415;BME280;4746;35.664;139.738;2024-01-16T10:32:41;101018.84;;;10.01;28.21
9415;BME280;4746;35.664;139.738;2024-01-16T10:35:14;101002.66;;;10.02;28.31
9415;BME280;4746;35.664;139.738;2024-01-16T10:37:52;101025.78;;;10.05;28.53
9415;BME280;4746;35.664;139.738;2024-01-16T10:40:24;101049.56;;;10.01;27.76
9415;BME280;4746;35.664;139.738;2024-01-16T10:43:04;101039.16;;;9.95;27.79
9415;BME280;4746;35.664;139.738;2024-01-16T10:45:33;101048.38;;;9.88;27.36
9415;BME280;4746;35.664;139.738;2024-01-16T10:48:05;101041.44;;;9.83;27.30
9415;BME280;4746;35.664;139.738;2024-01-16T10:50:36;101042.19;;;9.79;27.25
9415;BME280;4746;35.664;139.738;2024-01-16T10:53:06;100999.41;;;9.73;27.36
9415;BME280;4746;35.664;139.738;2024-01-16T10:55:57;101037.66;;;9.67;27.04
9415;BME280;4746;35.664;139.738;2024-01-16T10:58:25;101048.50;;;9.58;27.31
9415;BME280;4746;35.664;139.738;2024-01-16T11:00:57;101043.34;;;9.56;27.84
9415;BME280;4746;35.664;139.738;2024-01-16T11:03:48;101038.25;;;9.56;27.68
9415;BME280;4746;35.664;139.738;2024-01-16T11:06:19;101047.44;;;9.50;27.46
9415;BME280;4746;35.664;139.738;2024-01-16T11:08:48;101053.34;;;9.47;28.02
9415;BME280;4746;35.664;139.738;2024-01-16T11:11:16;101031.25;;;9.49;27.77
9415;BME280;4746;35.664;139.738;2024-01-16T11:13:46;101021.09;;;9.52;27.80
9415;BME280;4746;35.664;139.738;2024-01-16T11:16:14;101019.41;;;9.54;27.54
9415;BME280;4746;35.664;139.738;2024-01-16T11:18:44;100992.09;;;9.53;27.16
9415;BME280;4746;35.664;139.738;2024-01-16T11:21:14;101017.63;;;9.50;27.82
9415;BME280;4746;35.664;139.738;2024-01-16T11:23:43;101021.00;;;9.49;27.63
9415;BME280;4746;35.664;139.738;2024-01-16T11:26:34;101005.75;;;9.52;27.90
9415;BME280;4746;35.664;139.738;2024-01-16T11:31:56;100989.25;;;9.41;27.51
9415;BME280;4746;35.664;139.738;2024-01-16T11:37:13;100983.16;;;9.35;27.97
9415;BME280;4746;35.664;139.738;2024-01-16T11:39:41;100981.41;;;9.34;27.35
9415;BME280;4746;35.664;139.738;2024-01-16T11:42:08;100973.72;;;9.32;27.41
9415;BME280;4746;35.664;139.738;2024-01-16T11:44:49;100989.97;;;9.34;27.86
9415;BME280;4746;35.664;139.738;2024-01-16T11:47:24;101005.16;;;9.28;27.95
9415;BME280;4746;35.664;139.738;2024-01-16T11:50:13;101013.81;;;9.33;27.41
9415;BME280;4746;35.664;139.738;2024-01-16T11:52:54;101001.75;;;9.29;27.81
9415;BME280;4746;35.664;139.738;2024-01-16T11:55:35;101008.69;;;9.33;27.58
9415;BME280;4746;35.664;139.738;2024-01-16T11:58:35;101038.56;;;9.34;27.31
9415;BME280;4746;35.664;139.738;2024-01-16T12:01:06;101025.66;;;9.31;27.68
9415;BME280;4746;35.664;139.738;2024-01-16T12:03:35;101055.38;;;9.26;27.74
9415;BME280;4746;35.664;139.738;2024-01-16T12:06:03;101051.13;;;9.27;27.99
9415;BME280;4746;35.664;139.738;2024-01-16T12:08:33;101048.56;;;9.27;27.38
9415;BME280;4746;35.664;139.738;2024-01-16T12:11:00;101056.28;;;9.28;27.34
9415;BME280;4746;35.664;139.738;2024-01-16T12:13:28;101061.41;;;9.28;27.31
9415;BME280;4746;35.664;139.738;2024-01-16T12:16:07;101079.50;;;9.36;27.42
9415;BME280;4746;35.664;139.738;2024-01-16T12:18:34;101073.56;;;9.37;27.43
9415;BME280;4746;35.664;139.738;2024-01-16T12:21:12;101079.66;;;9.42;28.00
9415;BME280;4746;35.664;139.738;2024-01-16T12:23:43;101086.41;;;9.40;27.54
9415;BME280;4746;35.664;139.738;2024-01-16T12:26:22;101098.44;;;9.44;27.35
9415;BME280;4746;35.664;139.738;2024-01-16T12:28:55;101106.19;;;9.47;27.66
9415;BME280;4746;35.664;139.738;2024-01-16T12:31:23;101101.94;;;9.47;27.18
9415;BME280;4746;35.664;139.738;2024-01-16T12:34:05;101123.41;;;9.52;27.13
9415;BME280;4746;35.664;139.738;2024-01-16T12:36:34;101120.84;;;9.52;27.09
9415;BME280;4746;35.664;139.738;2024-01-16T12:39:04;101113.25;;;9.55;27.24
9415;BME280;4746;35.664;139.738;2024-01-16T12:41:43;101118.47;;;9.60;26.77
9415;BME280;4746;35.664;139.738;2024-01-16T12:44:13;101129.56;;;9.60;26.87
9415;BME280;4746;35.664;139.738;2024-01-16T12:46:40;101114.31;;;9.63;26.75
9415;BME280;4746;35.664;139.738;2024-01-16T12:49:09;101121.22;;;9.67;27.15
9415;BME280;4746;35.664;139.738;2024-01-16T12:51:38;101118.72;;;9.70;26.99
9415;BME280;4746;35.664;139.738;2024-01-16T12:54:17;101116.53;;;9.83;26.40
9415;BME280;4746;35.664;139.738;2024-01-16T12:56:57;101091.00;;;9.86;26.60
9415;BME280;4746;35.664;139.738;2024-01-16T12:59:28;101099.75;;;9.96;26.25
9415;BME280;4746;35.664;139.738;2024-01-16T13:01:59;101104.13;;;10.00;26.58
9415;BME280;4746;35.664;139.738;2024-01-16T13:04:29;101119.59;;;10.03;25.97
9415;BME280;4746;35.664;139.738;2024-01-16T13:07:06;101108.59;;;10.08;26.12
9415;BME280;4746;35.664;139.738;2024-01-16T13:09:36;101089.78;;;10.05;26.01
9415;BME280;4746;35.664;139.738;2024-01-16T13:12:19;101112.03;;;10.09;25.50